sensor_id;sensor_type;location;lat;lon;timestamp;temperature;humidity
25933;DHT22;13731;51.166;4.474;2023-07-13T00:00:13;16.70;1.00
25933;DHT22;13731;51.166;4.474;2023-07-13T00:02:42;16.70;1.00
25933;DHT22;13731;51.166;4.474;2023-07-13T00:05:07;16.60;1.00
25933;DHT22;13731;51.166;4.474;2023-07-13T00:07:34;16.60;1.00
25933;DHT22;13731;51.166;4.474;2023-07-13T00:10:00;16.60;26.60
25933;DHT22;13731;51.166;4.474;2023-07-13T00:12:27;16.60;99.90
25933;DHT22;13731;51.166;4.474;2023-07-13T00:14:57;16.50;99.90
25933;DHT22;13731;51.166;4.474;2023-07-13T00:17:25;16.60;99.90
25933;DHT22;13731;51.166;4.474;2023-07-13T00:19:51;16.70;7.50
25933;DHT22;13731;51.166;4.474;2023-07-13T00:22:17;16.60;36.00
25933;DHT22;13731;51.166;4.474;2023-07-13T00:24:43;16.50;99.90
25933;DHT22;13731;51.166;4.474;2023-07-13T00:27:09;16.40;99.90
25933;DHT22;13731;51.166;4.474;2023-07-13T00:29:36;16.30;1.00
25933;DHT22;13731;51.166;4.474;2023-07-13T00:32:05;16.20;1.00
25933;DHT22;13731;51.166;4.474;2023-07-13T00:34:32;16.20;19.60
25933;DHT22;13731;51.166;4.474;2023-07-13T00:36:58;16.30;1.00
25933;DHT22;13731;51.166;4.474;2023-07-13T00:39:24;16.30;1.00
25933;DHT22;13731;51.166;4.474;2023-07-13T00:41:51;16.30;1.00
25933;DHT22;13731;51.166;4.474;2023-07-13T00:44:18;16.30;1.00
25933;DHT22;13731;51.166;4.474;2023-07-13T00:46:43;16.20;96.80
25933;DHT22;13731;51.166;4.474;2023-07-13T00:49:10;16.10;99.90
25933;DHT22;13731;51.166;4.474;2023-07-13T00:51:39;16.10;1.00
25933;DHT22;13731;51.166;4.474;2023-07-13T00:54:07;16.10;99.90
25933;DHT22;13731;51.166;4.474;2023-07-13T00:56:34;16.10;99.90
25933;DHT22;13731;51.166;4.474;2023-07-13T00:59:02;16.10;99.90
25933;DHT22;13731;51.166;4.474;2023-07-13T01:01:28;16.00;1.00
25933;DHT22;13731;51.166;4.474;2023-07-13T01:03:54;16.00;1.00
25933;DHT22;13731;51.166;4.474;2023-07-13T01:06:20;16.00;1.00
25933;DHT22;13731;51.166;4.474;2023-07-13T01:08:47;16.00;37.70
25933;DHT22;13731;51.166;4.474;2023-07-13T01:11:17;16.00;99.90
25933;DHT22;13731;51.166;4.474;2023-07-13T01:13:43;15.90;1.00
25933;DHT22;13731;51.166;4.474;2023-07-13T01:16:13;16.00;99.90
25933;DHT22;13731;51.166;4.474;2023-07-13T01:18:39;16.00;99.90
25933;DHT22;13731;51.166;4.474;2023-07-13T01:21:05;15.90;1.00
25933;DHT22;13731;51.166;4.474;2023-07-13T01:23:31;15.90;1.00
25933;DHT22;13731;51.166;4.474;2023-07-13T01:25:58;16.00;1.00
25933;DHT22;13731;51.166;4.474;2023-07-13T01:28:24;16.00;1.00
25933;DHT22;13731;51.166;4.474;2023-07-13T01:30:53;15.90;99.90
25933;DHT22;13731;51.166;4.474;2023-07-13T01:33:18;15.80;1.00
25933;DHT22;13731;51.166;4.474;2023-07-13T01:35:45;15.80;1.00
25933;DHT22;13731;51.166;4.474;2023-07-13T01:38:12;15.70;99.90
25933;DHT22;13731;51.166;4.474;2023-07-13T01:40:40;15.80;1.00
25933;DHT22;13731;51.166;4.474;2023-07-13T01:43:06;15.70;95.50
25933;DHT22;13731;51.166;4.474;2023-07-13T01:45:32;15.70;99.90
25933;DHT22;13731;51.166;4.474;2023-07-13T01:47:58;15.70;99.90
25933;DHT22;13731;51.166;4.474;2023-07-13T01:50:24;15.80;90.50
25933;DHT22;13731;51.166;4.474;2023-07-13T01:52:52;15.70;99.90
25933;DHT22;13731;51.166;4.474;2023-07-13T01:55:18;15.80;99.90
25933;DHT22;13731;51.166;4.474;2023-07-13T01:57:44;15.80;99.90
25933;DHT22;13731;51.166;4.474;2023-07-13T02:00:13;15.70;99.90
25933;DHT22;13731;51.166;4.474;2023-07-13T02:02:42;15.70;10.20
25933;DHT22;13731;51.166;4.474;2023-07-13T02:05:09;15.60;99.90
25933;DHT22;13731;51.166;4.474;2023-07-13T02:07:35;15.60;1.00
25933;DHT22;13731;51.166;4.474;2023-07-13T02:10:03;15.60;87.20
25933;DHT22;13731;51.166;4.474;2023-07-13T02:12:29;15.60;1.00
25933;DHT22;13731;51.166;4.474;2023-07-13T02:14:55;15.60;1.00
25933;DHT22;13731;51.166;4.474;2023-07-13T02:17:21;15.60;1.00
25933;DHT22;13731;51.166;4.474;2023-07-13T02:19:47;15.60;1.00
25933;DHT22;13731;51.166;4.474;2023-07-13T02:22:12;15.60;99.90
25933;DHT22;13731;51.166;4.474;2023-07-13T02:24:38;15.60;76.30
25933;DHT22;13731;51.166;4.474;2023-07-13T02:27:04;15.60;99.90
25933;DHT22;13731;51.166;4.474;2023-07-13T02:29:30;15.50;1.00
25933;DHT22;13731;51.166;4.474;2023-07-13T02:31:56;15.50;1.00
25933;DHT22;13731;51.166;4.474;2023-07-13T02:34:23;15.40;1.00
25933;DHT22;13731;51.166;4.474;2023-07-13T02:36:48;15.50;1.00
25933;DHT22;13731;51.166;4.474;2023-07-13T02:39:14;15.60;99.90
25933;DHT22;13731;51.166;4.474;2023-07-13T02:41:41;15.60;99.90
25933;DHT22;13731;51.166;4.474;2023-07-13T02:44:06;15.70;99.90
25933;DHT22;13731;51.166;4.474;2023-07-13T02:46:34;15.80;1.00
25933;DHT22;13731;51.166;4.474;2023-07-13T02:49:00;15.80;1.00
25933;DHT22;13731;51.166;4.474;2023-07-13T02:51:26;15.90;1.00
25933;DHT22;13731;51.166;4.474;2023-07-13T02:53:52;15.90;1.00
25933;DHT22;13731;51.166;4.474;2023-07-13T02:56:26;15.90;99.90
25933;DHT22;13731;51.166;4.474;2023-07-13T02:58:52;16.00;99.90
25933;DHT22;13731;51.166;4.474;2023-07-13T03:01:20;16.00;99.90
25933;DHT22;13731;51.166;4.474;2023-07-13T03:03:48;15.80;1.00
25933;DHT22;13731;51.166;4.474;2023-07-13T03:06:14;15.90;99.90
25933;DHT22;13731;51.166;4.474;2023-07-13T03:08:47;16.00;99.90
25933;DHT22;13731;51.166;4.474;2023-07-13T03:11:16;16.00;1.00
25933;DHT22;13731;51.166;4.474;2023-07-13T03:13:43;16.00;1.00
25933;DHT22;13731;51.166;4.474;2023-07-13T03:16:10;16.10;99.90
25933;DHT22;13731;51.166;4.474;2023-07-13T03:18:36;16.10;99.90
25933;DHT22;13731;51.166;4.474;2023-07-13T03:21:05;16.20;91.90
25933;DHT22;13731;51.166;4.474;2023-07-13T03:23:31;16.20;99.90
25933;DHT22;13731;51.166;4.474;2023-07-13T03:26:17;16.20;99.90
25933;DHT22;13731;51.166;4.474;2023-07-13T03:28:44;16.10;1.00
25933;DHT22;13731;51.166;4.474;2023-07-13T03:31:16;16.10;1.00
25933;DHT22;13731;51.166;4.474;2023-07-13T03:33:42;16.10;1.00
25933;DHT22;13731;51.166;4.474;2023-07-13T03:36:09;16.10;1.00
25933;DHT22;13731;51.166;4.474;2023-07-13T03:38:35;16.20;1.00
25933;DHT22;13731;51.166;4.474;2023-07-13T03:41:02;16.20;99.90
25933;DHT22;13731;51.166;4.474;2023-07-13T03:43:29;16.30;99.90
25933;DHT22;13731;51.166;4.474;2023-07-13T03:45:55;16.30;99.90
25933;DHT22;13731;51.166;4.474;2023-07-13T03:48:20;16.30;99.90
25933;DHT22;13731;51.166;4.474;2023-07-13T03:50:46;16.20;1.00
25933;DHT22;13731;51.166;4.474;2023-07-13T03:53:12;16.30;1.00
25933;DHT22;13731;51.166;4.474;2023-07-13T03:55:38;16.40;99.90
25933;DHT22;13731;51.166;4.474;2023-07-13T03:58:23;16.30;1.00
25933;DHT22;13731;51.166;4.474;2023-07-13T04:00:52;16.30;51.10
25933;DHT22;13731;51.166;4.474;2023-07-13T04:03:17;16.30;1.00
25933;DHT22;13731;51.166;4.474;2023-07-13T04:05:43;16.40;1.00
25933;DHT22;13731;51.166;4.474;2023-07-13T04:08:12;16.30;99.90
25933;DHT22;13731;51.166;4.474;2023-07-13T04:10:38;16.40;47.50
25933;DHT22;13731;51.166;4.474;2023-07-13T04:13:04;16.50;1.00
25933;DHT22;13731;51.166;4.474;2023-07-13T04:15:30;16.40;1.00
25933;DHT22;13731;51.166;4.474;2023-07-13T04:17:56;16.40;1.00
25933;DHT22;13731;51.166;4.474;2023-07-13T04:20:22;16.50;1.00
25933;DHT22;13731;51.166;4.474;2023-07-13T04:22:49;16.50;99.90
25933;DHT22;13731;51.166;4.474;2023-07-13T04:25:15;16.50;1.00
25933;DHT22;13731;51.166;4.474;2023-07-13T04:27:41;16.40;99.90
25933;DHT22;13731;51.166;4.474;2023-07-13T04:30:07;16.40;1.00
25933;DHT22;13731;51.166;4.474;2023-07-13T04:32:33;16.50;99.90
25933;DHT22;13731;51.166;4.474;2023-07-13T04:34:59;16.40;1.00
25933;DHT22;13731;51.166;4.474;2023-07-13T04:37:25;16.40;99.90
25933;DHT22;13731;51.166;4.474;2023-07-13T04:39:51;16.50;99.90
25933;DHT22;13731;51.166;4.474;2023-07-13T04:42:17;16.50;99.90
25933;DHT22;13731;51.166;4.474;2023-07-13T04:44:47;16.50;37.10
25933;DHT22;13731;51.166;4.474;2023-07-13T04:47:13;16.60;1.00
25933;DHT22;13731;51.166;4.474;2023-07-13T04:49:39;16.70;1.00
25933;DHT22;13731;51.166;4.474;2023-07-13T04:52:05;16.80;99.90
25933;DHT22;13731;51.166;4.474;2023-07-13T04:54:33;16.80;1.00
25933;DHT22;13731;51.166;4.474;2023-07-13T04:56:58;16.80;99.90
25933;DHT22;13731;51.166;4.474;2023-07-13T04:59:24;16.80;99.90
25933;DHT22;13731;51.166;4.474;2023-07-13T05:01:50;16.90;1.00
25933;DHT22;13731;51.166;4.474;2023-07-13T05:04:16;16.90;98.30
25933;DHT22;13731;51.166;4.474;2023-07-13T05:06:42;16.80;54.30
25933;DHT22;13731;51.166;4.474;2023-07-13T05:09:08;16.80;99.90
25933;DHT22;13731;51.166;4.474;2023-07-13T05:11:34;16.90;99.90
25933;DHT22;13731;51.166;4.474;2023-07-13T05:13:59;16.90;99.90
25933;DHT22;13731;51.166;4.474;2023-07-13T05:16:27;16.90;99.90
25933;DHT22;13731;51.166;4.474;2023-07-13T05:18:53;16.90;99.90
25933;DHT22;13731;51.166;4.474;2023-07-13T05:21:19;16.90;99.90
25933;DHT22;13731;51.166;4.474;2023-07-13T05:23:44;16.80;1.00
25933;DHT22;13731;51.166;4.474;2023-07-13T05:26:11;17.00;99.90
25933;DHT22;13731;51.166;4.474;2023-07-13T05:28:37;16.90;99.90
25933;DHT22;13731;51.166;4.474;2023-07-13T05:31:03;17.10;2.10
25933;DHT22;13731;51.166;4.474;2023-07-13T05:33:29;17.00;99.90
25933;DHT22;13731;51.166;4.474;2023-07-13T05:35:55;17.20;1.00
25933;DHT22;13731;51.166;4.474;2023-07-13T05:38:21;17.30;1.00
25933;DHT22;13731;51.166;4.474;2023-07-13T05:40:47;17.40;99.90
25933;DHT22;13731;51.166;4.474;2023-07-13T05:43:13;17.40;99.90
25933;DHT22;13731;51.166;4.474;2023-07-13T05:45:40;17.60;99.90
25933;DHT22;13731;51.166;4.474;2023-07-13T05:48:06;17.70;99.90
25933;DHT22;13731;51.166;4.474;2023-07-13T05:50:32;17.50;1.00
25933;DHT22;13731;51.166;4.474;2023-07-13T05:52:57;17.40;99.90
25933;DHT22;13731;51.166;4.474;2023-07-13T05:55:23;17.40;99.90
25933;DHT22;13731;51.166;4.474;2023-07-13T05:57:49;17.60;1.00
25933;DHT22;13731;51.166;4.474;2023-07-13T06:00:15;17.50;1.00
25933;DHT22;13731;51.166;4.474;2023-07-13T06:02:41;17.40;99.90
25933;DHT22;13731;51.166;4.474;2023-07-13T06:05:07;17.50;99.90
25933;DHT22;13731;51.166;4.474;2023-07-13T06:07:33;17.50;99.90
25933;DHT22;13731;51.166;4.474;2023-07-13T06:09:59;17.60;1.00
25933;DHT22;13731;51.166;4.474;2023-07-13T06:12:25;17.50;1.00
25933;DHT22;13731;51.166;4.474;2023-07-13T06:14:51;17.60;30.30
25933;DHT22;13731;51.166;4.474;2023-07-13T06:17:17;17.70;1.00
25933;DHT22;13731;51.166;4.474;2023-07-13T06:19:43;17.70;1.00
25933;DHT22;13731;51.166;4.474;2023-07-13T06:22:09;17.70;1.00
25933;DHT22;13731;51.166;4.474;2023-07-13T06:24:35;17.70;1.00
25933;DHT22;13731;51.166;4.474;2023-07-13T06:27:01;17.60;1.00
25933;DHT22;13731;51.166;4.474;2023-07-13T06:29:27;17.70;99.90
25933;DHT22;13731;51.166;4.474;2023-07-13T06:31:52;17.70;1.00
25933;DHT22;13731;51.166;4.474;2023-07-13T06:34:18;17.80;99.90
25933;DHT22;13731;51.166;4.474;2023-07-13T06:36:44;17.90;99.90
25933;DHT22;13731;51.166;4.474;2023-07-13T06:39:11;18.00;1.00
25933;DHT22;13731;51.166;4.474;2023-07-13T06:41:37;18.00;92.00
25933;DHT22;13731;51.166;4.474;2023-07-13T06:44:09;17.90;99.90
25933;DHT22;13731;51.166;4.474;2023-07-13T06:46:35;18.00;99.90
25933;DHT22;13731;51.166;4.474;2023-07-13T06:49:01;18.10;1.00
25933;DHT22;13731;51.166;4.474;2023-07-13T06:51:26;18.00;99.90
25933;DHT22;13731;51.166;4.474;2023-07-13T06:53:52;18.00;99.90
25933;DHT22;13731;51.166;4.474;2023-07-13T06:56:20;18.10;99.90
25933;DHT22;13731;51.166;4.474;2023-07-13T06:58:45;18.10;99.90
25933;DHT22;13731;51.166;4.474;2023-07-13T07:01:13;18.40;1.00
25933;DHT22;13731;51.166;4.474;2023-07-13T07:03:39;18.40;1.00
25933;DHT22;13731;51.166;4.474;2023-07-13T07:06:13;18.40;1.00
25933;DHT22;13731;51.166;4.474;2023-07-13T07:08:40;18.30;1.00
25933;DHT22;13731;51.166;4.474;2023-07-13T07:11:07;18.30;1.00
25933;DHT22;13731;51.166;4.474;2023-07-13T07:13:34;18.30;1.00
25933;DHT22;13731;51.166;4.474;2023-07-13T07:16:01;18.50;1.00
25933;DHT22;13731;51.166;4.474;2023-07-13T07:18:30;18.50;1.00
25933;DHT22;13731;51.166;4.474;2023-07-13T07:20:58;18.50;99.90
25933;DHT22;13731;51.166;4.474;2023-07-13T07:23:23;18.50;1.00
25933;DHT22;13731;51.166;4.474;2023-07-13T07:25:49;18.70;99.90
25933;DHT22;13731;51.166;4.474;2023-07-13T07:28:17;18.90;59.10
25933;DHT22;13731;51.166;4.474;2023-07-13T07:30:47;18.80;99.90
25933;DHT22;13731;51.166;4.474;2023-07-13T07:33:13;19.00;99.90
25933;DHT22;13731;51.166;4.474;2023-07-13T07:35:39;19.30;1.00
25933;DHT22;13731;51.166;4.474;2023-07-13T07:38:05;19.50;99.90
25933;DHT22;13731;51.166;4.474;2023-07-13T07:40:31;19.60;99.90
25933;DHT22;13731;51.166;4.474;2023-07-13T07:42:57;19.30;99.90
25933;DHT22;13731;51.166;4.474;2023-07-13T07:45:23;19.40;99.90
25933;DHT22;13731;51.166;4.474;2023-07-13T07:47:49;19.40;1.00
25933;DHT22;13731;51.166;4.474;2023-07-13T07:50:15;19.70;99.90
25933;DHT22;13731;51.166;4.474;2023-07-13T07:52:40;20.00;99.90
25933;DHT22;13731;51.166;4.474;2023-07-13T07:55:07;20.00;72.40
25933;DHT22;13731;51.166;4.474;2023-07-13T07:57:33;20.20;1.00
25933;DHT22;13731;51.166;4.474;2023-07-13T07:59:59;20.40;1.00
25933;DHT22;13731;51.166;4.474;2023-07-13T08:02:25;20.60;1.00
25933;DHT22;13731;51.166;4.474;2023-07-13T08:04:51;20.50;1.00
25933;DHT22;13731;51.166;4.474;2023-07-13T08:07:17;20.30;1.00
25933;DHT22;13731;51.166;4.474;2023-07-13T08:09:42;20.70;1.00
25933;DHT22;13731;51.166;4.474;2023-07-13T08:12:08;20.90;1.00
25933;DHT22;13731;51.166;4.474;2023-07-13T08:14:34;20.90;1.00
25933;DHT22;13731;51.166;4.474;2023-07-13T08:17:00;20.80;1.00
25933;DHT22;13731;51.166;4.474;2023-07-13T08:19:25;20.70;1.00
25933;DHT22;13731;51.166;4.474;2023-07-13T08:21:51;20.80;99.90
25933;DHT22;13731;51.166;4.474;2023-07-13T08:24:17;20.90;1.00
25933;DHT22;13731;51.166;4.474;2023-07-13T08:26:44;20.80;99.90
25933;DHT22;13731;51.166;4.474;2023-07-13T08:29:10;20.70;1.00
25933;DHT22;13731;51.166;4.474;2023-07-13T08:31:36;20.70;1.00
25933;DHT22;13731;51.166;4.474;2023-07-13T08:34:02;20.70;1.00
25933;DHT22;13731;51.166;4.474;2023-07-13T08:36:28;21.00;99.90
25933;DHT22;13731;51.166;4.474;2023-07-13T08:38:54;20.70;1.00
25933;DHT22;13731;51.166;4.474;2023-07-13T08:41:20;21.00;99.90
25933;DHT22;13731;51.166;4.474;2023-07-13T08:43:47;21.30;99.90
25933;DHT22;13731;51.166;4.474;2023-07-13T08:48:47;21.00;99.90
25933;DHT22;13731;51.166;4.474;2023-07-13T08:53:46;21.40;99.90
25933;DHT22;13731;51.166;4.474;2023-07-13T08:56:16;21.40;99.90
25933;DHT22;13731;51.166;4.474;2023-07-13T08:58:43;21.70;99.90
25933;DHT22;13731;51.166;4.474;2023-07-13T09:01:17;21.60;99.90
25933;DHT22;13731;51.166;4.474;2023-07-13T09:03:47;21.70;99.90
25933;DHT22;13731;51.166;4.474;2023-07-13T09:06:16;21.30;99.90
25933;DHT22;13731;51.166;4.474;2023-07-13T09:08:55;21.20;99.90
25933;DHT22;13731;51.166;4.474;2023-07-13T09:17:02;21.20;99.90
25933;DHT22;13731;51.166;4.474;2023-07-13T09:19:30;21.40;99.90
25933;DHT22;13731;51.166;4.474;2023-07-13T09:21:58;21.40;99.90
25933;DHT22;13731;51.166;4.474;2023-07-13T09:24:29;21.80;99.90
25933;DHT22;13731;51.166;4.474;2023-07-13T09:26:56;22.10;99.90
25933;DHT22;13731;51.166;4.474;2023-07-13T09:29:27;22.20;99.90
25933;DHT22;13731;51.166;4.474;2023-07-13T09:31:54;22.40;99.90
25933;DHT22;13731;51.166;4.474;2023-07-13T09:34:20;22.30;99.90
25933;DHT22;13731;51.166;4.474;2023-07-13T09:36:46;22.60;99.90
25933;DHT22;13731;51.166;4.474;2023-07-13T09:39:45;22.60;99.90
25933;DHT22;13731;51.166;4.474;2023-07-13T09:42:12;22.60;99.90
25933;DHT22;13731;51.166;4.474;2023-07-13T09:47:17;22.30;99.90
25933;DHT22;13731;51.166;4.474;2023-07-13T09:49:43;21.80;99.90
25933;DHT22;13731;51.166;4.474;2023-07-13T09:52:12;21.40;99.90
25933;DHT22;13731;51.166;4.474;2023-07-13T09:54:39;21.40;99.90
25933;DHT22;13731;51.166;4.474;2023-07-13T09:57:12;21.60;99.90
25933;DHT22;13731;51.166;4.474;2023-07-13T09:59:43;21.70;99.90
25933;DHT22;13731;51.166;4.474;2023-07-13T10:04:53;21.70;99.90
25933;DHT22;13731;51.166;4.474;2023-07-13T10:07:22;21.80;99.90
25933;DHT22;13731;51.166;4.474;2023-07-13T10:09:51;21.80;99.90
25933;DHT22;13731;51.166;4.474;2023-07-13T10:12:18;21.80;99.90
25933;DHT22;13731;51.166;4.474;2023-07-13T10:14:44;21.90;99.90
25933;DHT22;13731;51.166;4.474;2023-07-13T10:17:10;21.80;99.90
25933;DHT22;13731;51.166;4.474;2023-07-13T10:19:37;22.20;99.90
25933;DHT22;13731;51.166;4.474;2023-07-13T10:24:44;21.70;99.90
25933;DHT22;13731;51.166;4.474;2023-07-13T10:27:20;21.90;99.90
25933;DHT22;13731;51.166;4.474;2023-07-13T10:30:11;22.20;99.90
25933;DHT22;13731;51.166;4.474;2023-07-13T10:32:38;22.80;99.90
25933;DHT22;13731;51.166;4.474;2023-07-13T10:35:04;22.90;99.90
25933;DHT22;13731;51.166;4.474;2023-07-13T10:37:40;23.20;99.90
25933;DHT22;13731;51.166;4.474;2023-07-13T10:40:12;24.30;58.40
25933;DHT22;13731;51.166;4.474;2023-07-13T10:42:40;24.50;30.00
25933;DHT22;13731;51.166;4.474;2023-07-13T10:45:14;24.30;15.60
25933;DHT22;13731;51.166;4.474;2023-07-13T10:47:40;24.00;12.20
25933;DHT22;13731;51.166;4.474;2023-07-13T10:50:08;24.70;5.40
25933;DHT22;13731;51.166;4.474;2023-07-13T10:55:05;26.30;1.00
25933;DHT22;13731;51.166;4.474;2023-07-13T10:57:32;27.20;1.00
25933;DHT22;13731;51.166;4.474;2023-07-13T11:02:38;25.60;1.00
25933;DHT22;13731;51.166;4.474;2023-07-13T11:10:51;25.90;1.00
25933;DHT22;13731;51.166;4.474;2023-07-13T11:13:54;25.50;1.00
25933;DHT22;13731;51.166;4.474;2023-07-13T11:16:13;25.30;1.00
25933;DHT22;13731;51.166;4.474;2023-07-13T11:18:39;25.40;1.00
25933;DHT22;13731;51.166;4.474;2023-07-13T11:21:52;25.10;1.00
25933;DHT22;13731;51.166;4.474;2023-07-13T11:24:03;24.70;1.00
25933;DHT22;13731;51.166;4.474;2023-07-13T11:31:43;23.70;1.00
25933;DHT22;13731;51.166;4.474;2023-07-13T11:34:15;23.60;1.00
25933;DHT22;13731;51.166;4.474;2023-07-13T11:36:44;23.60;1.00
25933;DHT22;13731;51.166;4.474;2023-07-13T11:39:17;23.20;1.00
25933;DHT22;13731;51.166;4.474;2023-07-13T11:41:45;22.90;1.00
25933;DHT22;13731;51.166;4.474;2023-07-13T11:44:14;22.30;1.00
25933;DHT22;13731;51.166;4.474;2023-07-13T11:46:44;21.80;9.60
25933;DHT22;13731;51.166;4.474;2023-07-13T11:49:13;20.80;99.90
25933;DHT22;13731;51.166;4.474;2023-07-13T11:51:39;19.90;1.00
25933;DHT22;13731;51.166;4.474;2023-07-13T11:54:06;19.30;86.70
25933;DHT22;13731;51.166;4.474;2023-07-13T11:56:39;18.90;99.90
25933;DHT22;13731;51.166;4.474;2023-07-13T11:59:07;18.40;99.90
25933;DHT22;13731;51.166;4.474;2023-07-13T12:01:33;18.30;1.00
25933;DHT22;13731;51.166;4.474;2023-07-13T12:04:02;18.20;99.90
25933;DHT22;13731;51.166;4.474;2023-07-13T12:06:32;18.10;99.90
25933;DHT22;13731;51.166;4.474;2023-07-13T12:09:03;17.90;70.40
25933;DHT22;13731;51.166;4.474;2023-07-13T12:11:29;17.70;1.00
25933;DHT22;13731;51.166;4.474;2023-07-13T12:13:55;17.80;1.00
25933;DHT22;13731;51.166;4.474;2023-07-13T12:18:48;18.00;99.90
25933;DHT22;13731;51.166;4.474;2023-07-13T12:21:16;18.10;99.90
25933;DHT22;13731;51.166;4.474;2023-07-13T12:23:43;18.00;1.00
25933;DHT22;13731;51.166;4.474;2023-07-13T12:26:09;18.00;1.00
25933;DHT22;13731;51.166;4.474;2023-07-13T12:28:50;18.20;99.90
25933;DHT22;13731;51.166;4.474;2023-07-13T12:33:55;18.60;1.00
25933;DHT22;13731;51.166;4.474;2023-07-13T12:36:21;18.70;99.90
25933;DHT22;13731;51.166;4.474;2023-07-13T12:38:47;19.00;1.00
25933;DHT22;13731;51.166;4.474;2023-07-13T12:41:12;19.00;1.00
25933;DHT22;13731;51.166;4.474;2023-07-13T12:43:40;19.30;1.00
25933;DHT22;13731;51.166;4.474;2023-07-13T12:46:24;19.30;99.90
25933;DHT22;13731;51.166;4.474;2023-07-13T12:48:54;19.20;1.00
25933;DHT22;13731;51.166;4.474;2023-07-13T12:51:27;19.30;99.90
25933;DHT22;13731;51.166;4.474;2023-07-13T12:53:56;19.50;72.10
25933;DHT22;13731;51.166;4.474;2023-07-13T12:56:23;19.70;1.00
25933;DHT22;13731;51.166;4.474;2023-07-13T12:58:50;19.90;1.00
25933;DHT22;13731;51.166;4.474;2023-07-13T13:01:23;20.10;99.90
25933;DHT22;13731;51.166;4.474;2023-07-13T13:03:52;20.40;1.00
25933;DHT22;13731;51.166;4.474;2023-07-13T13:08:49;20.70;1.00
25933;DHT22;13731;51.166;4.474;2023-07-13T13:11:15;20.90;99.90
25933;DHT22;13731;51.166;4.474;2023-07-13T13:13:42;21.40;1.00
25933;DHT22;13731;51.166;4.474;2023-07-13T13:16:12;21.80;1.00
25933;DHT22;13731;51.166;4.474;2023-07-13T13:18:39;22.10;1.00
25933;DHT22;13731;51.166;4.474;2023-07-13T13:21:05;23.00;99.90
25933;DHT22;13731;51.166;4.474;2023-07-13T13:23:31;24.00;99.90
25933;DHT22;13731;51.166;4.474;2023-07-13T13:25:57;25.90;99.90
25933;DHT22;13731;51.166;4.474;2023-07-13T13:28:23;27.70;77.80
25933;DHT22;13731;51.166;4.474;2023-07-13T13:30:50;27.50;13.20
25933;DHT22;13731;51.166;4.474;2023-07-13T13:33:17;27.50;2.70
25933;DHT22;13731;51.166;4.474;2023-07-13T13:35:43;27.30;1.00
25933;DHT22;13731;51.166;4.474;2023-07-13T13:38:12;26.90;1.00
25933;DHT22;13731;51.166;4.474;2023-07-13T13:40:40;26.90;1.00
25933;DHT22;13731;51.166;4.474;2023-07-13T13:43:13;26.50;1.00
25933;DHT22;13731;51.166;4.474;2023-07-13T13:45:40;25.90;1.00
25933;DHT22;13731;51.166;4.474;2023-07-13T13:48:06;25.40;1.00
25933;DHT22;13731;51.166;4.474;2023-07-13T13:50:33;25.50;1.00
25933;DHT22;13731;51.166;4.474;2023-07-13T13:52:58;25.50;1.00
25933;DHT22;13731;51.166;4.474;2023-07-13T13:55:25;26.40;1.00
25933;DHT22;13731;51.166;4.474;2023-07-13T13:57:51;27.50;1.00
25933;DHT22;13731;51.166;4.474;2023-07-13T14:00:16;28.70;1.00
25933;DHT22;13731;51.166;4.474;2023-07-13T14:02:46;29.00;1.00
25933;DHT22;13731;51.166;4.474;2023-07-13T14:05:13;29.90;1.00
25933;DHT22;13731;51.166;4.474;2023-07-13T14:07:40;29.20;1.00
25933;DHT22;13731;51.166;4.474;2023-07-13T14:10:15;28.80;1.00
25933;DHT22;13731;51.166;4.474;2023-07-13T14:12:42;27.70;1.00
25933;DHT22;13731;51.166;4.474;2023-07-13T14:15:17;27.00;1.00
25933;DHT22;13731;51.166;4.474;2023-07-13T14:17:45;26.20;1.00
25933;DHT22;13731;51.166;4.474;2023-07-13T14:20:11;25.80;1.00
25933;DHT22;13731;51.166;4.474;2023-07-13T14:22:37;25.30;1.00
25933;DHT22;13731;51.166;4.474;2023-07-13T14:25:03;24.70;1.00
25933;DHT22;13731;51.166;4.474;2023-07-13T14:27:29;24.50;1.00
25933;DHT22;13731;51.166;4.474;2023-07-13T14:29:55;24.50;1.00
25933;DHT22;13731;51.166;4.474;2023-07-13T14:32:21;24.10;1.00
25933;DHT22;13731;51.166;4.474;2023-07-13T14:34:46;24.00;1.00
25933;DHT22;13731;51.166;4.474;2023-07-13T14:37:13;24.10;1.00
25933;DHT22;13731;51.166;4.474;2023-07-13T14:39:40;23.90;1.00
25933;DHT22;13731;51.166;4.474;2023-07-13T14:42:08;24.10;1.00
25933;DHT22;13731;51.166;4.474;2023-07-13T14:44:34;24.40;1.00
25933;DHT22;13731;51.166;4.474;2023-07-13T14:47:02;24.50;1.00
25933;DHT22;13731;51.166;4.474;2023-07-13T14:49:39;24.70;1.00
25933;DHT22;13731;51.166;4.474;2023-07-13T14:52:09;24.40;1.00
25933;DHT22;13731;51.166;4.474;2023-07-13T14:54:36;24.20;1.00
25933;DHT22;13731;51.166;4.474;2023-07-13T14:57:09;23.90;1.00
25933;DHT22;13731;51.166;4.474;2023-07-13T14:59:35;23.90;1.00
25933;DHT22;13731;51.166;4.474;2023-07-13T15:02:01;24.20;1.00
25933;DHT22;13731;51.166;4.474;2023-07-13T15:04:27;24.40;1.00
25933;DHT22;13731;51.166;4.474;2023-07-13T15:06:53;25.00;1.00
25933;DHT22;13731;51.166;4.474;2023-07-13T15:09:20;25.90;1.00
25933;DHT22;13731;51.166;4.474;2023-07-13T15:11:45;27.10;1.00
25933;DHT22;13731;51.166;4.474;2023-07-13T15:14:11;28.00;1.00
25933;DHT22;13731;51.166;4.474;2023-07-13T15:16:37;28.40;1.00
25933;DHT22;13731;51.166;4.474;2023-07-13T15:19:03;27.80;1.00
25933;DHT22;13731;51.166;4.474;2023-07-13T15:21:28;27.40;1.00
25933;DHT22;13731;51.166;4.474;2023-07-13T15:24:00;27.60;1.00
25933;DHT22;13731;51.166;4.474;2023-07-13T15:26:26;28.70;1.00
25933;DHT22;13731;51.166;4.474;2023-07-13T15:28:51;30.10;1.00
25933;DHT22;13731;51.166;4.474;2023-07-13T15:31:19;30.80;1.00
25933;DHT22;13731;51.166;4.474;2023-07-13T15:33:45;31.00;1.00
25933;DHT22;13731;51.166;4.474;2023-07-13T15:36:14;30.70;1.00
25933;DHT22;13731;51.166;4.474;2023-07-13T15:38:39;31.10;1.00
25933;DHT22;13731;51.166;4.474;2023-07-13T15:41:17;30.40;1.00
25933;DHT22;13731;51.166;4.474;2023-07-13T15:43:43;29.40;1.00
25933;DHT22;13731;51.166;4.474;2023-07-13T15:46:09;28.60;1.00
25933;DHT22;13731;51.166;4.474;2023-07-13T15:48:36;27.80;1.00
25933;DHT22;13731;51.166;4.474;2023-07-13T15:51:02;27.30;1.00
25933;DHT22;13731;51.166;4.474;2023-07-13T15:53:32;26.80;1.00
25933;DHT22;13731;51.166;4.474;2023-07-13T15:55:59;26.70;1.00
25933;DHT22;13731;51.166;4.474;2023-07-13T15:58:25;26.60;1.00
25933;DHT22;13731;51.166;4.474;2023-07-13T16:00:51;27.00;1.00
25933;DHT22;13731;51.166;4.474;2023-07-13T16:03:19;27.40;1.00
25933;DHT22;13731;51.166;4.474;2023-07-13T16:05:45;27.80;1.00
25933;DHT22;13731;51.166;4.474;2023-07-13T16:08:26;27.60;1.00
25933;DHT22;13731;51.166;4.474;2023-07-13T16:10:52;27.10;1.00
25933;DHT22;13731;51.166;4.474;2023-07-13T16:13:19;26.60;1.00
25933;DHT22;13731;51.166;4.474;2023-07-13T16:15:46;26.90;1.00
25933;DHT22;13731;51.166;4.474;2023-07-13T16:18:13;26.90;1.00
25933;DHT22;13731;51.166;4.474;2023-07-13T16:20:38;27.10;1.00
25933;DHT22;13731;51.166;4.474;2023-07-13T16:23:04;27.20;1.00